Artas, South Dakota
Current Conditions -  °F | °C
As of 7:52 PM on Tuesday 21 Oct 2014 (Local Time) from KMBG Reporting Station
Clear Clear  
Wind Chill: 72°   Ceiling: Unl
Heat Index: 72°   Visibility: 10mi
Dew Point: 41°   Wind: 20mph
Humidity: 33%   Direction: 150°SSE
Pressure: 29.7"   Gusts: NA
Location:  45.7737°N, 99.5895°W
Report Text: KMBG 220052Z AUTO 15017KT 10SM CLR 22/05 A2970 RMK AO2 SLP053 T02220050 $
Loading
Personal Weather Stations






























Interactive Weather Map
Tropical Storm Tracking
New forecast layout! Learn more

10-Day Weather Forecast

Advertisements
Track Severe Weather on mobile